This is the latest recevied weather packets stored in our database for station/object 9W2SHB-13. If no packets are shown the sender has not sent any weather packets the latest 10 day(s).
| Time | Temp. | Humidity | Pressure | Rain* | Wind** | Luminosity | Snow |
|---|---|---|---|---|---|---|---|
| 1777816807 | 31.11° C | 65% | 1030.1 hPa | - | - | - | - |
| 1777815907 | 31.11° C | 65% | 1030.2 hPa | - | - | - | - |
| 1777815007 | 31.11° C | 64% | 1030.1 hPa | - | - | - | - |
| 1777814107 | 31.11° C | 62% | 1029.3 hPa | - | - | - | - |
| 1777813207 | 31.67° C | 60% | 1028.8 hPa | - | - | - | - |
| 1777812307 | 31.11° C | 60% | 1028.5 hPa | - | - | - | - |
| 1777811406 | 31.11° C | 60% | 1028.2 hPa | - | - | - | - |
| 1777809607 | 31.67° C | 61% | 1027.5 hPa | - | - | - | - |
| 1777808708 | 31.67° C | 60% | 1027.2 hPa | - | - | - | - |
| 1777807806 | 31.67° C | 60% | 1026.5 hPa | - | - | - | - |
| 1777806906 | 31.67° C | 59% | 1026.6 hPa | - | - | - | - |
| 1777806008 | 31.67° C | 59% | 1026.4 hPa | - | - | - | - |
| 1777805107 | 31.67° C | 58% | 1026.1 hPa | - | - | - | - |
| 1777804206 | 31.67° C | 58% | 1026 hPa | - | - | - | - |
| 1777803307 | 32.22° C | 59% | 1025.8 hPa | - | - | - | - |
| 1777802407 | 31.67° C | 61% | 1025.6 hPa | - | - | - | - |
| 1777801507 | 32.22° C | 59% | 1025.7 hPa | - | - | - | - |
| 1777800607 | 31.11° C | 62% | 1025.7 hPa | - | - | - | - |
| 1777799707 | 32.78° C | 58% | 1025.3 hPa | - | - | - | - |
| 1777798806 | 32.78° C | 58% | 1024.9 hPa | - | - | - | - |
| 1777797907 | 32.78° C | 58% | 1024.7 hPa | - | - | - | - |
| 1777797007 | 32.78° C | 59% | 1024.7 hPa | - | - | - | - |
| 1777796106 | 32.78° C | 58% | 1024.7 hPa | - | - | - | - |
| 1777795207 | 32.78° C | 58% | 1024.7 hPa | - | - | - | - |
| 1777794306 | 32.78° C | 58% | 1024.8 hPa | - | - | - | - |
* Rain since midnight (hover to see other rain measurements)
** Current wind speed in m/s (hover to see current wind gust speed)